Time;durP1;ratioP1;P1;durP2;ratioP2;P2;SDS_P1;SDS_P2;PMS_P1;PMS_P2;Temp;Humidity;BMP_temperature;BMP_pressure;BME280_temperature;BME280_humidity;BME280_pressure;Samples;Min_cycle;Max_cycle;Signal;HPM_P1;HPM_P2
2021/01/26 00:01:00;;;;;;;4.78;2.53;;;6.30;83.50;;;;;;5013884;28;20033;-49
2021/01/26 00:03:25;;;;;;;3.50;2.50;;;6.30;83.50;;;;;;5013432;28;20046;-50
2021/01/26 00:05:51;;;;;;;3.60;2.47;;;6.30;83.50;;;;;;5019894;28;20021;-49
2021/01/26 00:08:19;;;;;;;5.97;3.08;;;6.30;83.50;;;;;;5020728;28;20033;-49
2021/01/26 00:10:44;;;;;;;4.13;2.60;;;6.30;83.40;;;;;;5016861;28;20485;-50
2021/01/26 00:13:10;;;;;;;6.63;2.90;;;6.30;83.40;;;;;;5016588;28;20033;-49
2021/01/26 00:15:36;;;;;;;3.92;2.70;;;6.30;83.40;;;;;;5016542;28;20517;-49
2021/01/26 00:18:03;;;;;;;6.97;3.72;;;6.30;83.50;;;;;;5021418;28;20030;-49
2021/01/26 00:20:29;;;;;;;7.65;3.20;;;6.30;83.50;;;;;;5036116;28;20013;-50
2021/01/26 00:22:55;;;;;;;6.10;3.03;;;6.30;83.50;;;;;;5034372;28;20034;-49
2021/01/26 00:25:34;;;;;;;5.32;3.08;;;6.30;83.40;;;;;;5035840;28;20032;-50
2021/01/26 00:28:00;;;;;;;7.68;3.20;;;6.30;83.50;;;;;;5036221;28;20359;-49
2021/01/26 00:30:29;;;;;;;4.20;2.85;;;6.30;83.40;;;;;;5035948;28;20474;-49
2021/01/26 00:32:58;;;;;;;5.85;3.25;;;6.30;83.40;;;;;;5024735;28;20045;-49
2021/01/26 00:35:25;;;;;;;3.25;2.63;;;6.30;83.40;;;;;;5016178;28;20105;-49
2021/01/26 00:37:52;;;;;;;6.85;3.60;;;6.30;83.40;;;;;;5026089;28;20034;-49
2021/01/26 00:40:18;;;;;;;4.18;3.00;;;6.30;83.40;;;;;;5036040;28;20113;-49
2021/01/26 00:42:44;;;;;;;5.32;3.05;;;6.30;83.40;;;;;;5034170;28;20032;-49
2021/01/26 00:45:10;;;;;;;6.63;3.75;;;6.30;83.40;;;;;;5036190;28;20080;-49
2021/01/26 00:47:36;;;;;;;7.00;3.67;;;6.30;83.40;;;;;;5017877;28;20037;-49
2021/01/26 00:50:07;;;;;;;6.00;3.38;;;6.30;83.40;;;;;;5015738;28;20018;-49
2021/01/26 00:52:33;;;;;;;7.22;3.47;;;6.30;83.50;;;;;;5016782;28;20072;-49
2021/01/26 00:54:59;;;;;;;5.13;2.78;;;6.30;83.40;;;;;;5023869;28;20033;-49
2021/01/26 00:57:24;;;;;;;5.75;3.47;;;6.30;83.40;;;;;;5035649;28;20028;-49
2021/01/26 00:59:50;;;;;;;5.43;2.95;;;6.40;83.50;;;;;;5035648;28;20325;-49
2021/01/26 01:02:16;;;;;;;7.88;3.42;;;6.30;83.40;;;;;;5034758;28;20114;-49
2021/01/26 01:04:43;;;;;;;5.80;3.63;;;6.30;83.40;;;;;;5016689;28;20069;-49
2021/01/26 01:07:09;;;;;;;6.32;3.63;;;6.30;83.40;;;;;;5029718;28;20068;-49
2021/01/26 01:09:35;;;;;;;5.25;3.40;;;6.30;84.20;;;;;;5035414;28;20021;-49
2021/01/26 01:12:01;;;;;;;4.28;2.72;;;6.30;83.40;;;;;;5035571;28;20025;-49
2021/01/26 01:14:27;;;;;;;5.70;3.75;;;6.30;83.40;;;;;;5033581;28;20031;-49
2021/01/26 01:16:54;;;;;;;5.00;3.22;;;6.40;83.50;;;;;;5035475;28;20112;-49
2021/01/26 01:19:20;;;;;;;6.93;2.92;;;6.30;83.40;;;;;;5034758;28;20370;-49
2021/01/26 01:21:46;;;;;;;8.30;3.08;;;6.30;83.40;;;;;;5033931;28;20344;-49
2021/01/26 01:24:12;;;;;;;8.88;4.13;;;6.30;83.40;;;;;;5027937;28;20042;-49
2021/01/26 01:26:38;;;;;;;5.38;3.45;;;6.30;83.40;;;;;;5016767;28;20040;-49
2021/01/26 01:29:03;;;;;;;8.00;3.95;;;6.30;83.30;;;;;;5015245;28;20478;-49
2021/01/26 01:31:29;;;;;;;5.88;3.45;;;6.30;83.30;;;;;;5015074;28;20109;-49
2021/01/26 01:33:54;;;;;;;6.80;3.00;;;6.30;83.40;;;;;;5016114;28;20499;-49
2021/01/26 01:36:20;;;;;;;4.45;2.90;;;6.30;83.30;;;;;;5015281;28;20337;-49
2021/01/26 01:38:46;;;;;;;3.22;2.47;;;6.30;83.30;;;;;;5014876;28;20032;-49
2021/01/26 01:41:11;;;;;;;3.83;3.00;;;6.30;83.30;;;;;;5017521;28;20596;-49
2021/01/26 01:43:37;;;;;;;4.18;2.80;;;6.30;83.40;;;;;;5034561;28;20041;-49
2021/01/26 01:46:11;;;;;;;5.78;3.08;;;6.30;83.40;;;;;;5032917;28;20028;-49
2021/01/26 01:48:37;;;;;;;6.32;2.88;;;6.30;83.40;;;;;;5034580;28;20108;-49
2021/01/26 01:51:13;;;;;;;5.40;2.83;;;6.30;83.40;;;;;;5034297;28;20515;-49
2021/01/26 01:53:39;;;;;;;5.40;3.15;;;6.30;83.30;;;;;;5034522;28;20068;-49
2021/01/26 01:56:10;;;;;;;4.00;2.40;;;6.30;83.40;;;;;;5032872;28;20045;-49
2021/01/26 01:58:44;;;;;;;4.65;2.65;;;6.30;83.40;;;;;;5032658;28;20025;-49
2021/01/26 02:01:13;;;;;;;3.97;2.72;;;6.30;83.40;;;;;;5042567;28;20029;-49
2021/01/26 02:03:51;;;;;;;3.88;2.30;;;6.30;83.40;;;;;;5044387;28;20072;-49
2021/01/26 02:06:18;;;;;;;3.50;2.38;;;6.30;83.40;;;;;;5038812;28;20037;-49
2021/01/26 02:08:54;;;;;;;3.10;1.92;;;6.30;83.40;;;;;;5016129;28;20109;-49
2021/01/26 02:11:20;;;;;;;2.58;1.83;;;6.30;83.40;;;;;;5033840;28;20109;-49
2021/01/26 02:13:47;;;;;;;2.17;1.88;;;6.30;83.40;;;;;;5033876;28;20029;-49
2021/01/26 02:16:31;;;;;;;4.22;2.80;;;6.20;83.40;;;;;;5033656;28;20029;-49
2021/01/26 02:19:47;;;;;;;3.28;2.35;;;6.30;83.40;;;;;;5026446;28;20038;-49
2021/01/26 02:22:31;;;;;;;3.47;2.15;;;6.20;83.30;;;;;;5034055;28;20030;-49
2021/01/26 02:25:30;;;;;;;3.70;2.17;;;6.20;83.40;;;;;;5033983;28;20131;-50
2021/01/26 02:28:43;;;;;;;3.53;2.17;;;6.20;83.40;;;;;;5032458;28;20025;-49
2021/01/26 02:32:06;;;;;;;6.18;2.17;;;6.20;83.40;;;;;;5034518;28;20080;-49
2021/01/26 02:35:05;;;;;;;2.63;2.00;;;6.20;83.40;;;;;;5070334;28;20035;-49
2021/01/26 02:38:00;;;;;;;3.95;2.45;;;6.20;83.40;;;;;;5071056;28;20044;-49
2021/01/26 02:40:34;;;;;;;4.20;2.35;;;6.20;83.40;;;;;;5070968;28;20237;-49
2021/01/26 02:43:36;;;;;;;4.75;2.28;;;6.20;83.40;;;;;;5056289;28;20045;-49
2021/01/26 02:46:13;;;;;;;3.55;1.92;;;6.20;83.40;;;;;;5051101;28;20033;-50
2021/01/26 02:48:50;;;;;;;2.65;1.83;;;6.20;83.40;;;;;;5051936;28;20021;-49
2021/01/26 02:51:15;;;;;;;4.40;2.00;;;6.20;83.50;;;;;;5050703;28;20148;-49
2021/01/26 02:54:26;;;;;;;3.05;2.17;;;6.20;83.40;;;;;;5051018;28;20096;-49
2021/01/26 02:57:20;;;;;;;3.53;2.00;;;6.20;83.40;;;;;;4991802;28;20061;-49
2021/01/26 03:00:08;;;;;;;4.15;2.10;;;6.20;83.40;;;;;;4994026;28;20118;-49
2021/01/26 03:02:38;;;;;;;3.67;2.03;;;6.10;83.30;;;;;;5010582;28;20041;-49
2021/01/26 03:05:33;;;;;;;7.60;2.60;;;6.20;83.40;;;;;;4980843;28;20050;-49
2021/01/26 03:08:05;;;;;;;3.35;2.13;;;6.20;83.40;;;;;;4952733;29;20314;-50
2021/01/26 03:10:41;;;;;;;4.18;2.17;;;6.10;83.40;;;;;;4951625;28;20038;-49
2021/01/26 03:13:10;;;;;;;3.50;2.00;;;6.10;83.40;;;;;;4952922;29;20034;-49
2021/01/26 03:15:39;;;;;;;5.97;2.35;;;6.10;83.30;;;;;;4952901;29;20034;-50
2021/01/26 03:18:09;;;;;;;4.22;2.45;;;6.20;83.30;;;;;;4952679;29;20071;-49
2021/01/26 03:20:52;;;;;;;3.70;2.15;;;6.10;83.40;;;;;;4952329;29;20046;-49
2021/01/26 03:23:29;;;;;;;4.25;2.33;;;6.10;83.30;;;;;;4952747;29;20050;-50
2021/01/26 03:25:55;;;;;;;3.20;2.35;;;6.10;83.30;;;;;;4952705;29;20082;-49
2021/01/26 03:28:26;;;;;;;2.78;2.05;;;6.10;83.30;;;;;;4952663;29;20039;-49
2021/01/26 03:30:57;;;;;;;5.20;1.88;;;6.10;83.30;;;;;;4948544;28;20019;-49
2021/01/26 03:33:29;;;;;;;5.35;2.85;;;6.10;83.30;;;;;;4975276;28;20474;-49
2021/01/26 03:35:54;;;;;;;5.57;2.78;;;6.10;83.30;;;;;;5013344;28;20023;-49
2021/01/26 03:38:24;;;;;;;4.63;3.08;;;6.10;83.30;;;;;;5030100;28;20150;-49
2021/01/26 03:40:51;;;;;;;4.15;2.40;;;6.10;83.30;;;;;;5032676;28;20021;-49
2021/01/26 03:43:18;;;;;;;3.35;2.53;;;6.10;83.30;;;;;;5031682;28;20039;-49
2021/01/26 03:45:45;;;;;;;5.20;2.72;;;6.10;83.30;;;;;;5036652;28;20037;-49
2021/01/26 03:48:43;;;;;;;4.40;2.80;;;6.10;83.20;;;;;;5036906;28;20462;-49
2021/01/26 03:51:24;;;;;;;4.95;2.63;;;6.10;83.20;;;;;;5036784;28;20021;-49
2021/01/26 03:53:58;;;;;;;4.40;2.70;;;6.10;83.20;;;;;;5035086;28;20067;-49
2021/01/26 03:56:30;;;;;;;4.53;2.72;;;6.10;83.20;;;;;;5030821;28;20083;-49
2021/01/26 03:59:20;;;;;;;6.15;2.60;;;6.10;83.20;;;;;;5036813;28;20029;-49
2021/01/26 04:02:24;;;;;;;7.75;3.85;;;6.10;83.20;;;;;;5021864;28;20324;-49
2021/01/26 04:05:01;;;;;;;6.35;3.30;;;6.10;83.10;;;;;;5017608;28;20042;-49
2021/01/26 04:07:37;;;;;;;6.05;3.60;;;6.10;83.10;;;;;;5027982;28;20060;-49
2021/01/26 04:10:17;;;;;;;4.82;2.55;;;6.10;83.10;;;;;;5036396;28;20045;-49
2021/01/26 04:12:45;;;;;;;5.13;3.22;;;6.10;83.20;;;;;;5036108;28;20028;-49
2021/01/26 04:15:18;;;;;;;8.32;3.42;;;6.10;83.10;;;;;;5034841;28;20029;-49
2021/01/26 04:17:49;;;;;;;5.35;2.88;;;6.10;83.10;;;;;;5036243;28;20101;-50
2021/01/26 04:20:22;;;;;;;4.88;2.92;;;6.10;83.10;;;;;;5036358;28;20075;-49
2021/01/26 04:22:54;;;;;;;6.95;3.05;;;6.10;83.10;;;;;;5036164;28;20034;-50
2021/01/26 04:25:37;;;;;;;6.72;3.05;;;6.10;83.10;;;;;;5027446;28;20487;-50
2021/01/26 04:28:10;;;;;;;6.82;2.90;;;6.10;83.10;;;;;;5016418;28;20460;-49
2021/01/26 04:30:35;;;;;;;6.88;3.00;;;6.10;83.10;;;;;;5021210;28;20155;-49
2021/01/26 04:33:05;;;;;;;7.97;3.00;;;6.10;83.10;;;;;;5036056;28;20120;-50
2021/01/26 04:35:30;;;;;;;5.57;2.88;;;6.10;83.00;;;;;;5029662;28;20048;-49
2021/01/26 04:37:56;;;;;;;3.88;2.25;;;6.10;83.00;;;;;;5016321;28;20460;-50
2021/01/26 04:40:24;;;;;;;6.82;2.65;;;6.10;83.00;;;;;;5016292;28;20099;-50
2021/01/26 04:42:57;;;;;;;6.90;2.95;;;6.10;83.10;;;;;;5016196;28;20038;-49
2021/01/26 04:45:39;;;;;;;7.88;3.53;;;6.10;83.00;;;;;;5016506;28;20460;-50
2021/01/26 04:48:19;;;;;;;0.82;0.82;;;6.10;82.90;;;;;;5015934;28;20488;-49
2021/01/26 04:50:57;;;;;;;4.72;2.20;;;6.10;82.90;;;;;;5035445;28;20371;-50
2021/01/26 04:53:53;;;;;;;5.03;3.10;;;6.10;82.80;;;;;;5035718;28;20168;-49
2021/01/26 04:56:28;;;;;;;1.90;1.25;;;6.10;82.90;;;;;;5033862;28;20075;-49
2021/01/26 04:59:22;;;;;;;5.63;3.38;;;6.10;82.80;;;;;;5035633;28;20022;-50
2021/01/26 05:02:03;;;;;;;7.38;3.15;;;6.10;82.80;;;;;;5023630;28;20034;-49
2021/01/26 05:04:44;;;;;;;5.50;2.90;;;6.10;82.90;;;;;;5015866;28;20084;-49
2021/01/26 05:07:20;;;;;;;4.85;2.47;;;6.10;82.80;;;;;;5029349;28;20057;-50
2021/01/26 05:10:12;;;;;;;6.75;3.42;;;6.10;82.80;;;;;;5016141;28;20034;-50
2021/01/26 05:12:45;;;;;;;7.40;3.53;;;6.10;82.80;;;;;;5033360;28;20022;-50
2021/01/26 05:15:19;;;;;;;8.02;3.20;;;6.10;82.80;;;;;;5035158;28;20039;-49
2021/01/26 05:18:07;;;;;;;1.60;1.25;;;6.10;82.80;;;;;;5033820;28;20025;-50
2021/01/26 05:20:47;;;;;;;9.05;3.10;;;6.10;82.70;;;;;;5035167;28;20036;-49
2021/01/26 05:23:18;;;;;;;6.80;3.83;;;6.10;82.70;;;;;;5035168;28;20033;-49
2021/01/26 05:25:45;;;;;;;4.78;1.95;;;6.10;82.70;;;;;;5019886;28;20030;-49
2021/01/26 05:28:11;;;;;;;4.72;2.50;;;6.10;82.70;;;;;;5016336;28;20444;-50
2021/01/26 05:30:38;;;;;;;7.65;3.22;;;6.10;82.70;;;;;;5015227;28;20410;-49
2021/01/26 05:33:14;;;;;;;1.33;1.23;;;6.10;82.70;;;;;;5022070;28;20534;-49
2021/01/26 05:35:44;;;;;;;5.47;2.97;;;6.10;82.70;;;;;;5020620;28;20029;-50
2021/01/26 05:38:10;;;;;;;6.93;3.22;;;6.10;82.70;;;;;;5022619;28;20423;-50
2021/01/26 05:40:39;;;;;;;4.97;2.78;;;6.10;82.70;;;;;;5033674;28;20041;-49
2021/01/26 05:43:09;;;;;;;4.93;2.90;;;6.10;82.70;;;;;;5026835;28;20530;-50
2021/01/26 05:45:50;;;;;;;4.10;2.42;;;6.00;82.60;;;;;;5034945;28;20022;-50
2021/01/26 05:48:19;;;;;;;2.22;0.85;;;6.00;82.60;;;;;;5027508;28;20225;-49
2021/01/26 05:50:46;;;;;;;5.53;2.83;;;6.00;82.70;;;;;;5031394;28;20025;-50
2021/01/26 05:53:18;;;;;;;4.30;2.60;;;6.00;82.70;;;;;;5022672;28;20130;-50
2021/01/26 05:55:57;;;;;;;7.72;3.00;;;6.00;82.60;;;;;;5031104;28;20034;-50
2021/01/26 05:58:27;;;;;;;9.05;3.65;;;6.00;82.70;;;;;;5030281;28;20033;-50
2021/01/26 06:01:01;;;;;;;9.95;3.25;;;6.00;82.70;;;;;;5022787;28;20025;-50
2021/01/26 06:03:29;;;;;;;5.95;2.72;;;6.00;83.30;;;;;;5023976;28;20095;-49
2021/01/26 06:06:10;;;;;;;5.22;3.00;;;6.00;82.70;;;;;;5021758;28;20026;-49
2021/01/26 06:08:54;;;;;;;4.78;2.45;;;6.00;82.60;;;;;;5024374;28;20092;-49
2021/01/26 06:11:31;;;;;;;2.80;2.03;;;5.90;82.60;;;;;;5020203;28;20026;-49
2021/01/26 06:14:14;;;;;;;6.20;2.72;;;6.00;82.60;;;;;;5022237;28;20033;-50
2021/01/26 06:16:40;;;;;;;1.13;0.73;;;6.00;82.50;;;;;;5015626;28;20077;-50
2021/01/26 06:19:06;;;;;;;4.72;2.47;;;6.00;82.40;;;;;;5017466;28;20096;-50
2021/01/26 06:21:52;;;;;;;5.78;2.53;;;5.90;82.30;;;;;;5022220;28;20037;-50
2021/01/26 06:24:25;;;;;;;6.20;3.10;;;6.00;82.30;;;;;;5022668;28;20486;-49
2021/01/26 06:27:02;;;;;;;4.60;2.67;;;6.00;82.30;;;;;;5021705;28;20033;-50
2021/01/26 06:29:43;;;;;;;6.15;2.90;;;6.00;82.30;;;;;;5025752;28;20025;-50
2021/01/26 06:33:01;;;;;;;6.65;2.75;;;6.00;82.30;;;;;;5020183;28;20029;-50
2021/01/26 06:35:36;;;;;;;5.35;2.83;;;6.00;82.20;;;;;;5015687;28;20125;-50
2021/01/26 06:38:10;;;;;;;1.83;1.70;;;6.00;82.30;;;;;;5023998;28;20029;-50
2021/01/26 06:41:15;;;;;;;6.85;2.15;;;6.00;82.30;;;;;;5018861;28;20037;-49
2021/01/26 06:44:11;;;;;;;1.65;0.93;;;6.00;82.30;;;;;;5024721;28;20041;-49
2021/01/26 06:46:39;;;;;;;2.45;1.38;;;6.00;82.30;;;;;;5023496;28;20405;-49
2021/01/26 06:49:12;;;;;;;5.18;2.17;;;6.00;82.20;;;;;;5026602;28;20121;-49
2021/01/26 06:52:02;;;;;;;1.10;0.65;;;6.00;82.20;;;;;;5017524;28;20022;-50
2021/01/26 06:54:55;;;;;;;4.90;2.90;;;6.00;82.10;;;;;;5022594;28;20018;-50
2021/01/26 06:57:51;;;;;;;1.55;1.30;;;6.00;82.10;;;;;;5022075;28;20038;-49
2021/01/26 07:00:41;;;;;;;1.75;1.13;;;6.00;82.10;;;;;;5023858;28;20033;-50
2021/01/26 07:03:07;;;;;;;;;;;6.00;82.10;;;;;;5021276;28;20052;-49
2021/01/26 07:06:04;;;;;;;3.13;1.85;;;6.00;82.10;;;;;;5025453;28;19909;-49
2021/01/26 07:08:35;;;;;;;4.07;2.50;;;6.00;81.90;;;;;;5029546;28;20032;-49
2021/01/26 07:11:09;;;;;;;4.32;2.67;;;6.10;82.00;;;;;;5026446;28;20022;-49
2021/01/26 07:13:54;;;;;;;11.02;3.15;;;6.00;81.90;;;;;;5031156;28;20411;-50
2021/01/26 07:16:37;;;;;;;4.43;2.45;;;6.00;81.90;;;;;;5030752;28;20470;-49
2021/01/26 07:19:09;;;;;;;3.72;2.15;;;6.00;81.90;;;;;;5023913;28;20372;-49
2021/01/26 07:22:02;;;;;;;0.80;0.80;;;6.00;81.90;;;;;;5028893;28;20034;-50
2021/01/26 07:25:05;;;;;;;1.73;1.52;;;6.00;81.90;;;;;;5028328;28;20495;-50
2021/01/26 07:28:03;;;;;;;3.50;1.90;;;6.00;81.90;;;;;;5022905;28;20033;-49
2021/01/26 07:30:34;;;;;;;6.15;2.97;;;6.10;82.00;;;;;;5022251;28;20312;-49
2021/01/26 07:33:06;;;;;;;8.48;3.78;;;6.10;81.90;;;;;;5019250;28;20028;-50
2021/01/26 07:35:56;;;;;;;2.88;1.80;;;6.10;81.90;;;;;;5017987;28;20022;-49
2021/01/26 07:38:29;;;;;;;5.57;2.72;;;6.10;81.90;;;;;;5023172;28;20367;-49
2021/01/26 07:41:04;;;;;;;4.53;2.72;;;6.00;81.80;;;;;;5021359;28;20026;-49
2021/01/26 07:43:45;;;;;;;3.85;2.33;;;6.00;81.80;;;;;;5022331;28;20087;-49
2021/01/26 07:46:41;;;;;;;4.32;2.72;;;6.10;81.80;;;;;;5021136;28;20030;-49
2021/01/26 07:49:22;;;;;;;5.88;3.55;;;6.10;81.80;;;;;;5022327;28;20333;-49
2021/01/26 07:51:55;;;;;;;4.43;2.45;;;6.10;81.80;;;;;;5017519;28;20108;-50
2021/01/26 07:54:43;;;;;;;2.03;0.98;;;6.10;82.50;;;;;;5025660;28;20052;-50
2021/01/26 07:57:09;;;;;;;4.68;2.40;;;6.10;81.80;;;;;;5022568;28;20068;-49
2021/01/26 07:59:40;;;;;;;3.75;2.47;;;6.10;81.70;;;;;;5023089;28;20021;-50
2021/01/26 08:02:17;;;;;;;5.60;3.13;;;6.10;81.70;;;;;;5019251;28;20029;-50
2021/01/26 08:04:43;;;;;;;3.50;2.38;;;6.10;81.60;;;;;;5014106;28;20123;-49
2021/01/26 08:07:26;;;;;;;7.25;3.17;;;6.10;81.60;;;;;;5017858;28;20355;-50
2021/01/26 08:09:53;;;;;;;2.20;1.67;;;6.10;81.50;;;;;;5019599;28;20029;-49
2021/01/26 08:12:41;;;;;;;3.72;2.20;;;6.10;81.50;;;;;;5020988;28;20047;-49
2021/01/26 08:15:21;;;;;;;8.30;3.17;;;6.10;81.50;;;;;;5023385;28;20038;-49
2021/01/26 08:17:47;;;;;;;;;;;6.10;81.40;;;;;;5023090;28;20049;-50
2021/01/26 08:20:32;;;;;;;6.18;2.35;;;6.10;81.40;;;;;;5021731;28;19911;-50
2021/01/26 08:23:03;;;;;;;4.55;2.70;;;6.20;81.40;;;;;;5024281;28;21154;-49
2021/01/26 08:25:41;;;;;;;7.32;3.78;;;6.20;81.40;;;;;;5018630;28;20041;-49
2021/01/26 08:28:09;;;;;;;0.88;0.70;;;6.20;81.40;;;;;;5030785;28;20038;-49
2021/01/26 08:30:49;;;;;;;5.60;2.90;;;6.20;81.40;;;;;;5025712;28;20070;-49
2021/01/26 08:33:30;;;;;;;4.15;2.42;;;6.20;81.40;;;;;;5022198;28;20038;-49
2021/01/26 08:36:11;;;;;;;5.63;2.47;;;6.20;81.40;;;;;;5026514;28;20041;-50
2021/01/26 08:38:50;;;;;;;2.97;2.33;;;6.20;81.30;;;;;;5028607;28;20061;-50
2021/01/26 08:41:52;;;;;;;7.53;2.67;;;6.30;81.40;;;;;;5033871;28;20052;-49
2021/01/26 08:44:20;;;;;;;3.28;1.65;;;6.30;81.30;;;;;;5035492;28;20377;-49
2021/01/26 08:46:48;;;;;;;5.93;2.65;;;6.30;81.40;;;;;;5035924;28;20039;-49
2021/01/26 08:49:36;;;;;;;3.08;2.03;;;6.30;81.30;;;;;;5039081;28;20092;-49
2021/01/26 08:52:20;;;;;;;3.25;1.75;;;6.30;81.30;;;;;;5036945;28;20063;-49
2021/01/26 08:54:48;;;;;;;10.85;7.85;;;6.30;81.30;;;;;;5046313;28;20032;-49
2021/01/26 08:57:28;;;;;;;4.60;2.60;;;6.30;81.20;;;;;;5037939;28;20021;-49
2021/01/26 09:00:13;;;;;;;4.05;2.42;;;6.40;81.30;;;;;;5037911;28;20037;-49
2021/01/26 09:02:44;;;;;;;3.33;2.35;;;6.40;81.20;;;;;;5032981;28;20386;-50
2021/01/26 09:05:12;;;;;;;2.97;1.55;;;6.40;81.20;;;;;;5036945;28;20057;-49
2021/01/26 09:07:55;;;;;;;11.82;2.53;;;6.40;81.20;;;;;;5052639;28;20025;-50
2021/01/26 09:10:50;;;;;;;3.50;2.17;;;6.40;81.20;;;;;;5050640;28;20585;-49
2021/01/26 09:13:31;;;;;;;4.13;1.88;;;6.40;81.20;;;;;;5046605;28;20029;-49
2021/01/26 09:16:26;;;;;;;5.90;2.40;;;6.40;81.20;;;;;;5050841;28;20112;-49
2021/01/26 09:18:59;;;;;;;12.13;2.13;;;6.40;81.20;;;;;;5021426;28;20044;-50
2021/01/26 09:21:28;;;;;;;2.60;1.40;;;6.40;81.10;;;;;;5022111;28;20034;-50
2021/01/26 09:23:55;;;;;;;1.33;1.17;;;6.40;81.10;;;;;;5015026;28;20041;-49
2021/01/26 09:26:21;;;;;;;3.47;1.88;;;6.40;81.00;;;;;;5026273;28;20029;-49
2021/01/26 09:28:50;;;;;;;1.40;1.08;;;6.40;80.90;;;;;;5023550;28;20061;-49
2021/01/26 09:31:18;;;;;;;2.58;1.33;;;6.50;81.00;;;;;;5027456;28;20029;-50
2021/01/26 09:33:44;;;;;;;6.95;2.10;;;6.50;81.00;;;;;;5026566;28;20037;-49
2021/01/26 09:36:16;;;;;;;7.45;1.92;;;6.50;80.90;;;;;;5018779;28;20448;-50
2021/01/26 09:38:48;;;;;;;2.78;1.70;;;6.50;81.00;;;;;;5025519;28;20029;-50
2021/01/26 09:41:25;;;;;;;0.30;0.30;;;6.50;80.90;;;;;;5017132;28;20026;-50
2021/01/26 09:43:55;;;;;;;17.63;1.65;;;6.50;80.90;;;;;;5015495;28;20041;-50
2021/01/26 09:46:29;;;;;;;1.95;1.17;;;6.50;81.00;;;;;;5030651;28;20030;-50
2021/01/26 09:49:10;;;;;;;4.50;2.33;;;6.60;81.00;;;;;;5024669;28;20026;-50
2021/01/26 09:51:41;;;;;;;2.85;1.02;;;6.50;81.00;;;;;;5024986;28;20131;-49
2021/01/26 09:54:11;;;;;;;;;;;6.60;81.10;;;;;;5025218;28;20044;-49
2021/01/26 09:56:38;;;;;;;3.97;1.63;;;6.60;80.90;;;;;;5022513;28;19917;-50
2021/01/26 09:59:08;;;;;;;2.95;1.80;;;6.60;81.00;;;;;;5029781;28;20294;-50
2021/01/26 10:01:34;;;;;;;2.50;1.70;;;6.50;80.90;;;;;;5022903;28;20101;-50
2021/01/26 10:04:04;;;;;;;1.17;0.63;;;6.60;81.00;;;;;;5022969;28;20041;-49
2021/01/26 10:06:30;;;;;;;0.70;0.40;;;6.60;81.10;;;;;;5030586;28;20036;-49
2021/01/26 10:09:21;;;;;;;0.75;0.75;;;6.60;81.10;;;;;;5026105;28;20029;-50
2021/01/26 10:11:48;;;;;;;1.42;0.98;;;6.60;81.00;;;;;;5018661;28;20032;-50
2021/01/26 10:14:21;;;;;;;1.73;1.00;;;6.60;81.10;;;;;;5014060;28;20355;-50
2021/01/26 10:16:52;;;;;;;2.70;1.55;;;6.60;80.90;;;;;;5021721;28;20045;-49
2021/01/26 10:19:23;;;;;;;2.15;1.40;;;6.60;80.90;;;;;;5022640;28;20052;-50
2021/01/26 10:21:49;;;;;;;0.85;0.82;;;6.60;80.80;;;;;;5021865;28;20022;-49
2021/01/26 10:24:28;;;;;;;4.70;2.10;;;6.60;80.90;;;;;;5022396;28;20083;-49
2021/01/26 10:27:06;;;;;;;3.00;1.38;;;6.60;80.90;;;;;;5019141;28;20455;-50
2021/01/26 10:29:40;;;;;;;2.92;1.48;;;6.60;80.80;;;;;;5021015;28;20041;-50
2021/01/26 10:32:08;;;;;;;5.07;2.45;;;6.60;80.70;;;;;;5021887;28;20021;-49
2021/01/26 10:34:44;;;;;;;5.30;2.75;;;6.70;80.70;;;;;;5022274;28;20064;-50
2021/01/26 10:37:21;;;;;;;1.70;1.60;;;6.70;80.80;;;;;;5027966;28;20393;-50
2021/01/26 10:40:04;;;;;;;3.58;1.90;;;6.70;80.90;;;;;;5025355;28;20029;-50
2021/01/26 10:42:30;;;;;;;4.00;2.58;;;6.70;81.00;;;;;;5029099;28;20458;-50
2021/01/26 10:44:56;;;;;;;4.45;2.22;;;6.80;81.60;;;;;;5032518;28;20076;-49
2021/01/26 10:47:33;;;;;;;5.20;2.50;;;6.80;80.70;;;;;;5014795;28;20451;-49
2021/01/26 10:50:12;;;;;;;10.18;2.30;;;6.80;80.60;;;;;;5013755;28;20025;-49
2021/01/26 10:52:48;;;;;;;4.45;1.95;;;6.90;81.10;;;;;;5024033;28;20113;-49
2021/01/26 10:55:18;;;;;;;3.50;2.28;;;6.90;80.90;;;;;;5033294;28;20033;-49
2021/01/26 10:57:45;;;;;;;2.45;1.60;;;6.90;80.80;;;;;;5030328;28;20026;-50
2021/01/26 11:00:14;;;;;;;4.55;1.42;;;6.90;81.00;;;;;;5013634;28;20026;-49
2021/01/26 11:02:40;;;;;;;6.00;1.58;;;7.00;81.00;;;;;;5018800;28;20450;-50
2021/01/26 11:05:10;;;;;;;3.78;1.55;;;6.90;80.80;;;;;;5030101;28;20025;-50
2021/01/26 11:07:35;;;;;;;3.00;1.58;;;6.90;80.70;;;;;;5030487;28;20328;-49
2021/01/26 11:10:03;;;;;;;7.70;1.55;;;7.00;80.70;;;;;;5029950;28;20407;-50
2021/01/26 11:12:28;;;;;;;4.70;2.10;;;7.00;80.50;;;;;;5028245;28;20029;-50
2021/01/26 11:14:57;;;;;;;1.20;0.93;;;7.00;80.40;;;;;;5020318;28;20439;-49
2021/01/26 11:17:23;;;;;;;4.70;1.33;;;7.00;80.30;;;;;;5019633;28;20033;-49
2021/01/26 11:19:48;;;;;;;6.55;1.80;;;7.00;80.40;;;;;;5021824;28;20029;-49
2021/01/26 11:22:15;;;;;;;3.15;1.52;;;7.00;81.20;;;;;;5020935;28;20328;-49
2021/01/26 11:24:42;;;;;;;4.43;2.00;;;7.00;80.40;;;;;;5019166;28;20045;-49
2021/01/26 11:27:08;;;;;;;1.50;1.00;;;7.00;80.30;;;;;;5019721;28;20172;-50
2021/01/26 11:29:34;;;;;;;4.53;1.50;;;7.00;80.50;;;;;;5022456;28;20111;-49
2021/01/26 11:32:01;;;;;;;4.07;1.85;;;7.00;80.40;;;;;;5017734;28;20443;-50
2021/01/26 11:34:27;;;;;;;5.47;1.40;;;7.00;80.30;;;;;;5019179;28;20104;-49
2021/01/26 11:36:53;;;;;;;4.28;1.05;;;7.00;80.30;;;;;;5019422;28;20022;-50
2021/01/26 11:39:18;;;;;;;7.28;1.48;;;7.00;80.30;;;;;;5013662;28;20083;-49
2021/01/26 11:41:44;;;;;;;2.95;1.15;;;7.00;80.40;;;;;;5028647;28;20422;-50
2021/01/26 11:44:10;;;;;;;1.85;1.02;;;7.00;80.30;;;;;;5022152;28;20451;-50
2021/01/26 11:46:35;;;;;;;3.92;2.03;;;7.00;80.30;;;;;;5021547;28;20054;-49
2021/01/26 11:49:01;;;;;;;6.72;1.77;;;7.00;80.50;;;;;;5019371;28;20029;-49
2021/01/26 11:51:27;;;;;;;2.28;1.25;;;7.00;80.40;;;;;;5021547;28;20049;-50
2021/01/26 11:53:53;;;;;;;2.30;1.40;;;7.00;80.30;;;;;;5022812;28;20440;-50
2021/01/26 11:56:21;;;;;;;0.90;0.85;;;7.00;80.40;;;;;;5021856;28;20126;-49
2021/01/26 11:58:48;;;;;;;6.28;1.08;;;7.00;80.40;;;;;;5023600;28;20030;-49
2021/01/26 12:01:14;;;;;;;3.75;1.98;;;7.00;80.60;;;;;;5021825;28;20021;-49
2021/01/26 12:03:39;;;;;;;3.63;1.63;;;7.00;80.30;;;;;;5027415;28;20096;-49
2021/01/26 12:06:05;;;;;;;3.50;1.50;;;7.10;80.40;;;;;;5017524;28;20018;-49
2021/01/26 12:08:31;;;;;;;5.63;1.45;;;7.10;80.30;;;;;;5021621;28;20406;-49
2021/01/26 12:10:56;;;;;;;3.03;1.20;;;7.00;80.30;;;;;;5017052;28;20053;-49
2021/01/26 12:13:22;;;;;;;2.75;1.23;;;7.00;80.40;;;;;;5025530;28;20025;-49
2021/01/26 12:15:48;;;;;;;4.07;1.10;;;7.00;80.30;;;;;;5029455;28;20026;-49
2021/01/26 12:18:14;;;;;;;3.45;1.65;;;7.00;81.20;;;;;;5022374;28;20320;-49
2021/01/26 12:20:40;;;;;;;2.03;1.05;;;7.00;80.40;;;;;;5028208;28;20025;-49
2021/01/26 12:23:07;;;;;;;3.47;1.60;;;7.00;80.40;;;;;;5031428;28;20044;-50
2021/01/26 12:25:34;;;;;;;1.52;1.05;;;7.10;80.40;;;;;;5032272;28;20037;-49
2021/01/26 12:28:01;;;;;;;1.48;1.30;;;7.10;80.40;;;;;;5031389;28;20444;-50
2021/01/26 12:30:28;;;;;;;2.60;1.52;;;7.10;80.40;;;;;;5031725;28;20091;-50
2021/01/26 12:32:54;;;;;;;4.65;1.38;;;7.10;80.40;;;;;;5031029;28;20064;-50
2021/01/26 12:35:29;;;;;;;3.00;1.50;;;7.10;80.40;;;;;;5029795;28;20045;-50
2021/01/26 12:37:55;;;;;;;4.85;1.23;;;7.10;80.30;;;;;;5032063;28;20061;-49
2021/01/26 12:40:21;;;;;;;0.98;0.73;;;7.10;80.30;;;;;;5023976;28;20064;-49
2021/01/26 12:42:47;;;;;;;1.85;1.30;;;7.10;80.40;;;;;;5029602;28;20472;-49
2021/01/26 12:45:16;;;;;;;2.20;1.60;;;7.10;80.40;;;;;;5022936;28;20029;-50
2021/01/26 12:47:42;;;;;;;3.97;1.30;;;7.10;80.30;;;;;;5035347;28;20360;-50
2021/01/26 12:50:10;;;;;;;2.17;1.25;;;7.10;80.40;;;;;;5021969;28;20409;-50
2021/01/26 12:52:36;;;;;;;4.22;1.52;;;7.10;80.40;;;;;;5016622;28;20109;-50
2021/01/26 12:55:03;;;;;;;3.47;1.42;;;7.10;80.40;;;;;;5026256;28;20029;-50
2021/01/26 12:57:28;;;;;;;5.22;1.90;;;7.10;80.30;;;;;;5030354;28;20030;-50
2021/01/26 12:59:54;;;;;;;4.82;1.27;;;7.10;80.30;;;;;;5034425;28;20025;-50
2021/01/26 13:02:23;;;;;;;4.82;1.90;;;7.10;80.30;;;;;;5035276;28;20033;-50
2021/01/26 13:04:49;;;;;;;5.22;1.75;;;7.20;80.50;;;;;;5023256;28;20038;-50
2021/01/26 13:07:17;;;;;;;1.67;1.38;;;7.20;80.50;;;;;;5022291;28;20057;-49
2021/01/26 13:09:43;;;;;;;2.17;1.35;;;7.20;80.60;;;;;;5021186;28;20061;-50
2021/01/26 13:12:09;;;;;;;0.85;0.73;;;7.30;80.50;;;;;;5030554;28;20052;-50
2021/01/26 13:14:34;;;;;;;1.73;1.30;;;7.30;80.30;;;;;;5025703;28;20025;-49
2021/01/26 13:17:00;;;;;;;2.08;1.52;;;7.30;80.00;;;;;;5017402;28;20037;-50
2021/01/26 13:19:26;;;;;;;5.35;1.40;;;7.20;80.10;;;;;;5020553;28;20049;-49
2021/01/26 13:21:52;;;;;;;3.83;1.20;;;7.20;80.00;;;;;;5024678;28;20079;-49
2021/01/26 13:24:20;;;;;;;10.13;1.67;;;7.30;80.20;;;;;;5034524;28;20045;-49
2021/01/26 13:26:46;;;;;;;2.50;1.27;;;7.20;80.10;;;;;;5026164;28;20062;-50
2021/01/26 13:29:12;;;;;;;2.20;1.17;;;7.20;80.20;;;;;;5025315;28;20033;-50
2021/01/26 13:31:37;;;;;;;3.22;1.63;;;7.20;80.30;;;;;;5021836;28;20025;-49